Sidell, Florida
Current Conditions -  °F | °C
As of 10:01 AM on Tuesday 21 Oct 2014 (Local Time) from KPGD Reporting Station
Broken Clouds Broken Clouds  
Wind Chill: 78°   Ceiling: 6000
Heat Index: 80°   Visibility: 10mi
Dew Point: 71°   Wind: 6mph
Humidity: 79%   Direction: 140°SE
Pressure: 29.98"   Gusts: NA
Location:  27.215°N, 81.8567°W
Report Text: KPGD 211401Z AUTO 14005KT 10SM SCT028 BKN060 26/22 A2998 RMK AO2 T02560217
Loading
Personal Weather Stations






























Interactive Weather Map
Tropical Storm Tracking
New forecast layout! Learn more

10-Day Weather Forecast

Advertisements
Track Severe Weather on mobile